Time;durP1;ratioP1;P1;durP2;ratioP2;P2;SDS_P1;SDS_P2;PMS_P1;PMS_P2;Temp;Humidity;BMP_temperature;BMP_pressure;BME280_temperature;BME280_humidity;BME280_pressure;Samples;Min_cycle;Max_cycle;Signal;HPM_P1;HPM_P2
2021/06/21 00:01:30;;;;;;;6.85;1.30;;;20.30;75.60;;;;;;4995151;28;20057;-66
2021/06/21 00:03:57;;;;;;;4.93;1.20;;;20.20;75.80;;;;;;4997119;28;20033;-66
2021/06/21 00:06:23;;;;;;;8.68;1.17;;;20.10;76.00;;;;;;4995247;28;20034;-66
2021/06/21 00:08:48;;;;;;;6.00;1.40;;;20.10;76.10;;;;;;4998924;28;20735;-66
2021/06/21 00:11:14;;;;;;;7.68;1.73;;;20.00;76.20;;;;;;4994381;28;20141;-67
2021/06/21 00:13:40;;;;;;;6.90;1.98;;;19.90;76.40;;;;;;4997011;28;20596;-66
2021/06/21 00:16:06;;;;;;;3.20;1.13;;;19.90;76.70;;;;;;4997145;28;20038;-66
2021/06/21 00:18:31;;;;;;;8.10;1.80;;;19.80;77.10;;;;;;4994225;28;20145;-67
2021/06/21 00:20:57;;;;;;;6.45;1.40;;;19.80;77.30;;;;;;4994945;28;20690;-65
2021/06/21 00:23:23;;;;;;;2.90;1.10;;;19.70;77.40;;;;;;4992160;28;20138;-66
2021/06/21 00:25:49;;;;;;;3.95;1.50;;;19.70;77.80;;;;;;5002192;28;20110;-65
2021/06/21 00:28:16;;;;;;;6.47;1.50;;;19.70;77.80;;;;;;4995278;28;20035;-66
2021/06/21 00:30:43;;;;;;;3.45;1.20;;;19.70;77.70;;;;;;4994004;28;20153;-66
2021/06/21 00:33:09;;;;;;;8.30;1.50;;;19.70;78.00;;;;;;4993896;28;20096;-66
2021/06/21 00:35:35;;;;;;;8.35;1.30;;;19.70;78.10;;;;;;4998913;28;20449;-66
2021/06/21 00:38:01;;;;;;;5.85;1.10;;;19.70;78.00;;;;;;4992453;28;20084;-65
2021/06/21 00:40:27;;;;;;;6.47;1.17;;;19.70;78.10;;;;;;4993221;28;20040;-66
2021/06/21 00:42:53;;;;;;;5.70;1.42;;;19.70;78.10;;;;;;4998490;28;20026;-66
2021/06/21 00:45:21;;;;;;;7.15;1.20;;;19.80;78.10;;;;;;4995744;28;20058;-66
2021/06/21 00:47:49;;;;;;;2.28;1.27;;;19.80;79.10;;;;;;4995439;28;20030;-66
2021/06/21 00:50:15;;;;;;;4.53;1.40;;;19.80;78.20;;;;;;4996477;28;20042;-66
2021/06/21 00:52:42;;;;;;;6.72;1.45;;;19.90;78.00;;;;;;4991622;28;20038;-65
2021/06/21 00:55:08;;;;;;;6.07;1.38;;;19.90;77.70;;;;;;4992020;28;20081;-66
2021/06/21 00:57:36;;;;;;;5.85;1.55;;;19.90;77.70;;;;;;4995717;28;20454;-66
2021/06/21 01:00:10;;;;;;;8.30;1.70;;;19.90;77.80;;;;;;4996802;28;20049;-66
2021/06/21 01:02:36;;;;;;;4.03;1.25;;;19.90;77.80;;;;;;4992766;28;20476;-66
2021/06/21 01:05:06;;;;;;;6.78;1.55;;;19.90;77.50;;;;;;4999944;28;20041;-66
2021/06/21 01:07:32;;;;;;;6.35;1.10;;;19.90;77.50;;;;;;4998869;28;20395;-66
2021/06/21 01:09:58;;;;;;;6.03;1.30;;;19.90;77.50;;;;;;4994374;28;20057;-66
2021/06/21 01:12:45;;;;;;;5.50;1.50;;;19.90;77.60;;;;;;4993991;28;20033;-67
2021/06/21 01:15:12;;;;;;;7.38;1.65;;;19.90;77.70;;;;;;4994046;28;20116;-66
2021/06/21 01:17:53;;;;;;;4.47;1.35;;;20.00;77.50;;;;;;4995678;28;20110;-66
2021/06/21 01:20:56;;;;;;;4.07;1.30;;;20.00;77.70;;;;;;4994535;28;20157;-66
2021/06/21 01:23:43;;;;;;;4.13;1.27;;;20.00;78.00;;;;;;4993821;28;20042;-66
2021/06/21 01:26:16;;;;;;;7.57;1.42;;;20.00;77.90;;;;;;4993037;28;20688;-67
2021/06/21 01:29:02;;;;;;;5.13;1.10;;;20.00;77.50;;;;;;5011020;28;20030;-66
2021/06/21 01:31:48;;;;;;;5.70;1.55;;;20.00;78.00;;;;;;4998097;28;20030;-67
2021/06/21 01:34:16;;;;;;;5.07;1.25;;;20.00;77.90;;;;;;4995327;28;20041;-66
2021/06/21 01:36:45;;;;;;;3.83;1.35;;;20.00;77.30;;;;;;4996363;28;25798;-66
2021/06/21 01:39:12;;;;;;;9.18;1.30;;;20.00;77.10;;;;;;4997091;28;20030;-66
2021/06/21 01:41:41;;;;;;;3.88;1.30;;;20.00;77.20;;;;;;4996346;28;20050;-66
2021/06/21 01:44:08;;;;;;;5.90;1.10;;;20.00;77.40;;;;;;4995094;28;20590;-66
2021/06/21 01:46:36;;;;;;;2.20;0.90;;;20.00;77.20;;;;;;4995357;28;20085;-66
2021/06/21 01:49:08;;;;;;;3.38;1.38;;;20.00;76.90;;;;;;4999812;28;20517;-66
2021/06/21 01:51:37;;;;;;;4.10;1.40;;;20.00;77.30;;;;;;4995964;28;20060;-66
2021/06/21 01:54:05;;;;;;;5.78;1.02;;;20.00;77.50;;;;;;4990367;28;20048;-66
2021/06/21 01:56:34;;;;;;;2.97;1.10;;;20.00;77.30;;;;;;4991117;28;20099;-66
2021/06/21 01:59:04;;;;;;;5.57;1.50;;;20.00;77.10;;;;;;4994397;28;20088;-66
2021/06/21 02:01:32;;;;;;;3.92;1.10;;;20.00;77.30;;;;;;4997263;28;20034;-66
2021/06/21 02:04:00;;;;;;;3.50;1.25;;;20.00;77.20;;;;;;4994033;28;20037;-66
2021/06/21 02:06:28;;;;;;;6.05;1.30;;;20.00;77.30;;;;;;4994364;28;20692;-66
2021/06/21 02:08:55;;;;;;;8.85;1.80;;;20.00;77.10;;;;;;4996691;28;20038;-66
2021/06/21 02:11:21;;;;;;;6.40;1.40;;;20.00;77.20;;;;;;4991501;28;20129;-66
2021/06/21 02:13:49;;;;;;;4.20;1.30;;;20.00;76.90;;;;;;4993812;28;20135;-66
2021/06/21 02:16:16;;;;;;;7.93;1.80;;;20.00;77.10;;;;;;4996454;28;20046;-66
2021/06/21 02:18:43;;;;;;;7.70;1.65;;;20.00;76.70;;;;;;4997138;28;20116;-66
2021/06/21 02:21:11;;;;;;;4.78;1.40;;;20.00;76.80;;;;;;4995158;28;20465;-65
2021/06/21 02:23:38;;;;;;;7.03;2.08;;;20.00;76.80;;;;;;4990186;28;20034;-66
2021/06/21 02:26:04;;;;;;;3.60;1.80;;;20.00;76.80;;;;;;4998684;28;20035;-66
2021/06/21 02:28:31;;;;;;;6.70;1.52;;;20.00;76.80;;;;;;4995240;28;20104;-67
2021/06/21 02:30:58;;;;;;;5.45;1.67;;;20.00;76.60;;;;;;4996832;28;20045;-66
2021/06/21 02:33:25;;;;;;;5.80;2.05;;;19.90;76.60;;;;;;4993331;28;20038;-67
2021/06/21 02:35:51;;;;;;;7.80;1.50;;;19.90;76.70;;;;;;4995085;28;20545;-67
2021/06/21 02:38:17;;;;;;;9.15;2.00;;;19.80;76.80;;;;;;4994014;28;20042;-66
2021/06/21 02:40:43;;;;;;;8.52;2.40;;;19.80;76.90;;;;;;4990729;28;20442;-66
2021/06/21 02:43:09;;;;;;;5.70;2.00;;;19.80;77.00;;;;;;4994617;28;20057;-66
2021/06/21 02:45:35;;;;;;;6.38;2.05;;;19.70;77.10;;;;;;4997348;28;20050;-66
2021/06/21 02:48:05;;;;;;;4.55;1.75;;;19.70;77.30;;;;;;5000768;28;20038;-66
2021/06/21 02:50:31;;;;;;;5.05;1.48;;;19.70;77.80;;;;;;4993417;28;20038;-66
2021/06/21 02:53:25;;;;;;;4.88;1.77;;;19.60;77.60;;;;;;4994134;28;20034;-66
2021/06/21 02:56:02;;;;;;;6.38;1.77;;;19.60;78.40;;;;;;4995260;28;20030;-66
2021/06/21 02:58:31;;;;;;;7.60;1.70;;;19.60;78.10;;;;;;4999457;28;20061;-66
2021/06/21 03:01:02;;;;;;;10.15;1.77;;;19.60;77.90;;;;;;4997606;28;20038;-66
2021/06/21 03:03:31;;;;;;;6.65;1.80;;;19.60;78.00;;;;;;4999868;28;20030;-66
2021/06/21 03:05:59;;;;;;;5.40;1.77;;;19.60;78.00;;;;;;4997129;28;20030;-66
2021/06/21 03:08:27;;;;;;;7.68;1.75;;;19.60;77.90;;;;;;5001129;28;20409;-66
2021/06/21 03:10:54;;;;;;;4.55;1.55;;;19.60;77.70;;;;;;4993513;28;20099;-66
2021/06/21 03:13:21;;;;;;;6.32;1.30;;;19.60;77.60;;;;;;4998053;28;20042;-66
2021/06/21 03:15:49;;;;;;;8.23;1.98;;;19.60;77.50;;;;;;4996116;28;20033;-66
2021/06/21 03:18:18;;;;;;;4.75;1.50;;;19.60;77.50;;;;;;4996229;28;20065;-66
2021/06/21 03:20:44;;;;;;;5.07;1.40;;;19.60;77.50;;;;;;4996891;28;20038;-66
2021/06/21 03:23:09;;;;;;;4.35;1.90;;;19.60;77.30;;;;;;4995287;28;20061;-66
2021/06/21 03:25:36;;;;;;;5.78;1.65;;;19.50;77.20;;;;;;4998234;28;20501;-66
2021/06/21 03:28:13;;;;;;;6.15;1.52;;;19.50;77.30;;;;;;4999037;28;20118;-66
2021/06/21 03:30:51;;;;;;;5.55;1.90;;;19.40;77.50;;;;;;4997404;28;20776;-66
2021/06/21 03:33:18;;;;;;;5.95;2.03;;;19.40;77.50;;;;;;4995152;28;20113;-66
2021/06/21 03:35:44;;;;;;;5.72;1.88;;;19.40;77.50;;;;;;4991511;28;20033;-66
2021/06/21 03:38:12;;;;;;;7.82;1.70;;;19.40;77.50;;;;;;4994184;28;20049;-66
2021/06/21 03:40:37;;;;;;;3.58;1.50;;;19.30;77.90;;;;;;4994937;28;20088;-66
2021/06/21 03:43:03;;;;;;;7.60;1.85;;;19.30;77.70;;;;;;4995946;28;20034;-65
2021/06/21 03:45:29;;;;;;;5.70;1.60;;;19.30;77.70;;;;;;4992880;28;20069;-66
2021/06/21 03:47:54;;;;;;;6.32;1.60;;;19.20;77.70;;;;;;4996074;28;20164;-66
2021/06/21 03:50:20;;;;;;;6.03;1.35;;;19.20;77.70;;;;;;4994729;28;20289;-66
2021/06/21 03:52:46;;;;;;;5.05;1.58;;;19.20;77.70;;;;;;4992921;28;20852;-65
2021/06/21 03:55:12;;;;;;;6.50;1.50;;;19.20;77.80;;;;;;4990803;28;20490;-66
2021/06/21 03:57:47;;;;;;;6.90;1.65;;;19.20;77.90;;;;;;5000347;28;20030;-66
2021/06/21 04:00:14;;;;;;;7.15;1.50;;;19.30;78.30;;;;;;4995564;28;20042;-66
2021/06/21 04:02:40;;;;;;;5.13;1.75;;;19.30;78.00;;;;;;4995073;28;20035;-66
2021/06/21 04:05:06;;;;;;;4.43;1.55;;;19.30;77.90;;;;;;4996607;28;20750;-67
2021/06/21 04:07:32;;;;;;;4.90;1.38;;;19.30;77.90;;;;;;4996789;28;20731;-66
2021/06/21 04:09:58;;;;;;;8.77;1.73;;;19.30;77.90;;;;;;4995086;28;20124;-67
2021/06/21 04:12:25;;;;;;;6.47;1.38;;;19.30;77.60;;;;;;4991826;28;20036;-66
2021/06/21 04:14:52;;;;;;;7.15;1.80;;;19.40;77.30;;;;;;4998160;28;20096;-66
2021/06/21 04:17:18;;;;;;;7.35;1.67;;;19.30;77.20;;;;;;4996886;28;20048;-66
2021/06/21 04:19:44;;;;;;;5.03;1.60;;;19.40;77.30;;;;;;4996459;28;20041;-66
2021/06/21 04:22:10;;;;;;;4.47;1.50;;;19.40;78.00;;;;;;4994269;28;20029;-66
2021/06/21 04:24:35;;;;;;;8.95;1.48;;;19.40;77.30;;;;;;4993139;28;20046;-67
2021/06/21 04:27:01;;;;;;;4.75;1.10;;;19.40;77.10;;;;;;4994006;28;20057;-67
2021/06/21 04:29:27;;;;;;;6.80;1.30;;;19.40;77.20;;;;;;4993762;28;20073;-66
2021/06/21 04:31:52;;;;;;;4.25;1.33;;;19.40;77.00;;;;;;4992726;28;20032;-66
2021/06/21 04:34:18;;;;;;;4.68;1.25;;;19.40;77.10;;;;;;4995413;28;20030;-66
2021/06/21 04:36:44;;;;;;;8.63;1.63;;;19.40;77.00;;;;;;4995018;28;20042;-67
2021/06/21 04:39:10;;;;;;;7.32;1.80;;;19.40;77.20;;;;;;4997526;28;20057;-66
2021/06/21 04:41:35;;;;;;;11.00;1.83;;;19.40;77.20;;;;;;4993988;28;20436;-66
2021/06/21 04:44:01;;;;;;;6.60;1.33;;;19.40;77.00;;;;;;4997004;28;20022;-67
2021/06/21 04:46:29;;;;;;;7.30;1.48;;;19.50;77.10;;;;;;4997865;28;20035;-66
2021/06/21 04:48:56;;;;;;;6.68;1.40;;;19.50;76.80;;;;;;4998770;28;20061;-66
2021/06/21 04:51:22;;;;;;;11.38;1.50;;;19.50;76.60;;;;;;4997744;28;20098;-66
2021/06/21 04:53:48;;;;;;;7.25;1.45;;;19.50;76.60;;;;;;4997332;28;20030;-66
2021/06/21 04:56:15;;;;;;;6.72;1.45;;;19.50;76.50;;;;;;4997562;28;20506;-67
2021/06/21 04:58:40;;;;;;;6.88;1.17;;;19.50;76.30;;;;;;5004721;28;20034;-67
2021/06/21 05:01:07;;;;;;;7.30;1.42;;;19.60;76.30;;;;;;4998583;28;20703;-67
2021/06/21 05:03:35;;;;;;;7.35;1.10;;;19.60;76.50;;;;;;4998613;28;20391;-67
2021/06/21 05:06:00;;;;;;;9.57;1.58;;;19.60;76.40;;;;;;5002939;28;20030;-66
2021/06/21 05:08:27;;;;;;;5.45;1.23;;;19.60;76.20;;;;;;4998010;28;20425;-66
2021/06/21 05:10:52;;;;;;;5.95;1.60;;;19.70;76.30;;;;;;4992991;28;20117;-66
2021/06/21 05:13:18;;;;;;;5.85;1.63;;;19.70;76.30;;;;;;4997777;28;20117;-66
2021/06/21 05:15:43;;;;;;;8.50;1.42;;;19.70;76.10;;;;;;4999222;28;20066;-67
2021/06/21 05:18:09;;;;;;;5.65;1.52;;;19.80;76.10;;;;;;5001285;28;20121;-66
2021/06/21 05:20:35;;;;;;;5.80;1.38;;;19.80;76.10;;;;;;4996491;28;20062;-66
2021/06/21 05:23:00;;;;;;;4.95;1.27;;;19.90;75.70;;;;;;4998241;28;20030;-66
2021/06/21 05:25:26;;;;;;;6.28;1.48;;;19.90;75.60;;;;;;4997570;28;20054;-67
2021/06/21 05:27:52;;;;;;;8.18;1.65;;;19.90;75.50;;;;;;4999234;28;20129;-66
2021/06/21 05:30:19;;;;;;;3.65;1.20;;;19.90;75.30;;;;;;4995989;28;20040;-66
2021/06/21 05:32:44;;;;;;;5.72;1.35;;;20.00;75.20;;;;;;4990171;28;20499;-66
2021/06/21 05:35:11;;;;;;;5.55;1.02;;;20.00;75.30;;;;;;4995863;28;20424;-66
2021/06/21 05:37:37;;;;;;;8.60;1.40;;;20.00;75.30;;;;;;4997530;28;20451;-67
2021/06/21 05:40:05;;;;;;;5.00;1.13;;;20.00;75.40;;;;;;4997944;28;20073;-66
2021/06/21 05:42:30;;;;;;;7.55;1.20;;;20.10;75.40;;;;;;4995606;28;20038;-65
2021/06/21 05:44:56;;;;;;;8.57;1.60;;;20.10;75.40;;;;;;4995274;28;20037;-66
2021/06/21 05:47:24;;;;;;;8.18;1.38;;;20.20;75.20;;;;;;4993849;28;20414;-67
2021/06/21 05:49:50;;;;;;;6.72;1.45;;;20.30;75.10;;;;;;4998763;28;20137;-66
2021/06/21 05:52:15;;;;;;;6.97;1.40;;;20.30;74.70;;;;;;4995698;28;20493;-66
2021/06/21 05:54:41;;;;;;;5.25;1.20;;;20.30;74.40;;;;;;4998625;28;20042;-66
2021/06/21 05:57:07;;;;;;;6.30;1.13;;;20.40;74.40;;;;;;4996616;28;20105;-66
2021/06/21 05:59:33;;;;;;;5.43;1.40;;;20.40;74.40;;;;;;4998156;28;20034;-66
2021/06/21 06:01:59;;;;;;;3.95;1.20;;;20.40;74.30;;;;;;4996978;28;20113;-66
2021/06/21 06:04:25;;;;;;;5.38;1.30;;;20.50;74.10;;;;;;4997818;28;20189;-66
2021/06/21 06:06:51;;;;;;;5.05;1.30;;;20.50;74.30;;;;;;4998767;28;20030;-66
2021/06/21 06:09:16;;;;;;;3.45;0.90;;;20.50;74.30;;;;;;4997569;28;20034;-66
2021/06/21 06:11:42;;;;;;;5.97;1.23;;;20.60;73.90;;;;;;4992379;28;20026;-66
2021/06/21 06:14:08;;;;;;;6.68;1.30;;;20.60;74.00;;;;;;4995732;28;20036;-66
2021/06/21 06:16:33;;;;;;;6.05;1.00;;;20.70;74.00;;;;;;4997122;28;20031;-66
2021/06/21 06:18:59;;;;;;;7.10;1.42;;;20.70;74.00;;;;;;4997807;28;20502;-67
2021/06/21 06:21:29;;;;;;;7.05;1.05;;;20.70;73.70;;;;;;4998399;28;20161;-66
2021/06/21 06:23:55;;;;;;;8.00;1.33;;;20.70;73.80;;;;;;4995760;28;20148;-66
2021/06/21 06:26:21;;;;;;;5.60;1.00;;;20.80;73.70;;;;;;4995994;28;20493;-66
2021/06/21 06:28:47;;;;;;;5.05;1.10;;;20.80;73.70;;;;;;4998482;28;20038;-66
2021/06/21 06:31:12;;;;;;;4.60;1.27;;;20.90;73.90;;;;;;5006167;28;20038;-67
2021/06/21 06:33:38;;;;;;;7.68;1.55;;;20.90;73.50;;;;;;5001402;28;20049;-66
2021/06/21 06:36:04;;;;;;;6.18;0.95;;;21.00;73.30;;;;;;5000795;28;20042;-67
2021/06/21 06:38:31;;;;;;;5.20;1.08;;;21.00;73.30;;;;;;5001101;28;20390;-67
2021/06/21 06:40:57;;;;;;;5.97;1.27;;;21.10;73.30;;;;;;5001764;28;20509;-67
2021/06/21 06:43:22;;;;;;;5.78;1.10;;;21.10;73.30;;;;;;4997642;28;20088;-67
2021/06/21 06:45:48;;;;;;;3.25;1.17;;;21.10;73.20;;;;;;5001288;28;20038;-67
2021/06/21 06:48:14;;;;;;;5.35;1.40;;;21.20;73.40;;;;;;5001793;28;20517;-67
2021/06/21 06:50:40;;;;;;;5.68;1.20;;;21.30;73.30;;;;;;5000829;28;20037;-67
2021/06/21 06:53:06;;;;;;;5.25;1.02;;;21.40;73.20;;;;;;4999335;28;20037;-66
2021/06/21 06:58:16;;;;;;;6.43;1.20;;;21.50;72.70;;;;;;5001189;28;20513;-67
2021/06/21 07:00:41;;;;;;;6.38;1.17;;;21.60;72.60;;;;;;5001081;28;20118;-67
2021/06/21 07:03:08;;;;;;;7.93;1.80;;;21.60;72.30;;;;;;4991676;28;20601;-67
2021/06/21 07:05:34;;;;;;;3.80;1.15;;;21.70;72.10;;;;;;5000616;28;20030;-67
2021/06/21 07:08:00;;;;;;;6.25;1.38;;;21.80;71.80;;;;;;4998691;28;20037;-65
2021/06/21 07:10:26;;;;;;;3.95;1.00;;;21.80;71.80;;;;;;4998595;28;20031;-66
2021/06/21 07:12:52;;;;;;;6.63;1.00;;;21.90;72.00;;;;;;4999500;28;20033;-66
2021/06/21 07:15:18;;;;;;;7.10;1.20;;;22.00;71.70;;;;;;4999258;28;20035;-66
2021/06/21 07:17:44;;;;;;;6.78;1.42;;;22.00;70.60;;;;;;4999781;28;20030;-66
2021/06/21 07:20:11;;;;;;;6.88;1.52;;;22.10;70.60;;;;;;4999973;28;20458;-66
2021/06/21 07:22:37;;;;;;;6.05;1.27;;;22.20;70.50;;;;;;4998414;28;20064;-66
2021/06/21 07:25:04;;;;;;;10.25;1.25;;;22.20;71.10;;;;;;5000246;28;20062;-66
2021/06/21 07:27:29;;;;;;;4.13;1.05;;;22.30;69.90;;;;;;5000068;28;20501;-66
2021/06/21 07:29:55;;;;;;;5.18;0.90;;;22.40;69.60;;;;;;4998918;28;20057;-66
2021/06/21 07:32:21;;;;;;;5.95;1.50;;;22.40;69.10;;;;;;4999032;28;20402;-66
2021/06/21 07:34:47;;;;;;;8.27;1.42;;;22.50;69.20;;;;;;4999433;28;20110;-66
2021/06/21 07:37:12;;;;;;;7.20;1.33;;;22.50;68.90;;;;;;4997636;28;20033;-65
2021/06/21 07:39:38;;;;;;;6.50;1.45;;;22.60;68.40;;;;;;4999780;28;20034;-65
2021/06/21 07:42:04;;;;;;;5.70;1.17;;;22.70;67.40;;;;;;4999775;28;20031;-66
2021/06/21 07:44:30;;;;;;;6.82;1.17;;;22.70;67.60;;;;;;4997353;28;20099;-66
2021/06/21 07:46:56;;;;;;;6.90;1.33;;;22.70;67.30;;;;;;5000514;28;20046;-66
2021/06/21 07:49:22;;;;;;;4.45;1.17;;;22.80;67.90;;;;;;5000587;28;20023;-66
2021/06/21 07:51:47;;;;;;;5.30;1.02;;;22.80;67.50;;;;;;4999783;28;20032;-66
2021/06/21 07:54:14;;;;;;;7.60;1.17;;;22.90;68.10;;;;;;4994349;28;20463;-66
2021/06/21 07:56:40;;;;;;;4.63;1.35;;;22.90;67.60;;;;;;5003293;28;20022;-66
2021/06/21 07:59:06;;;;;;;5.45;1.52;;;23.00;66.90;;;;;;4998083;28;20414;-67
2021/06/21 08:01:32;;;;;;;4.30;1.13;;;23.00;65.90;;;;;;4997686;28;20034;-65
2021/06/21 08:03:57;;;;;;;7.63;1.30;;;23.10;65.90;;;;;;4998749;28;20113;-66
2021/06/21 08:06:24;;;;;;;6.85;1.27;;;23.20;65.60;;;;;;4998189;28;20065;-66
2021/06/21 08:08:50;;;;;;;4.13;0.85;;;23.20;65.90;;;;;;4998189;28;20030;-66
2021/06/21 08:11:15;;;;;;;5.20;0.93;;;23.30;65.70;;;;;;5000716;28;20054;-66
2021/06/21 08:13:41;;;;;;;6.40;1.17;;;23.40;64.60;;;;;;4999582;28;20125;-66
2021/06/21 08:16:07;;;;;;;2.88;1.10;;;23.50;64.20;;;;;;5001928;28;20038;-66
2021/06/21 08:18:33;;;;;;;6.10;0.88;;;23.60;63.30;;;;;;4999775;28;20030;-67
2021/06/21 08:20:59;;;;;;;6.43;1.20;;;23.70;63.30;;;;;;4999391;28;20038;-66
2021/06/21 08:23:25;;;;;;;5.43;1.25;;;23.80;62.40;;;;;;4998280;28;20038;-66
2021/06/21 08:25:51;;;;;;;7.70;1.05;;;23.80;62.40;;;;;;4997997;28;20375;-66
2021/06/21 08:28:17;;;;;;;5.63;1.10;;;23.90;63.00;;;;;;5000346;28;20042;-67
2021/06/21 08:30:45;;;;;;;5.15;1.40;;;23.90;62.20;;;;;;4996205;28;20078;-66
2021/06/21 08:33:11;;;;;;;3.60;1.25;;;24.00;62.70;;;;;;4998621;28;20046;-66
2021/06/21 08:35:37;;;;;;;7.32;1.25;;;24.00;62.60;;;;;;4997596;28;20164;-67
2021/06/21 08:38:04;;;;;;;5.22;1.13;;;24.10;62.90;;;;;;4998334;28;20054;-67
2021/06/21 08:40:31;;;;;;;4.07;0.90;;;24.20;63.00;;;;;;4999150;28;20036;-67
2021/06/21 08:42:58;;;;;;;5.65;1.17;;;24.30;63.00;;;;;;4998008;28;20035;-67
2021/06/21 08:45:24;;;;;;;1.77;1.00;;;24.40;62.60;;;;;;5004787;28;20111;-67
2021/06/21 08:47:51;;;;;;;4.22;0.93;;;24.50;62.80;;;;;;4999381;28;20031;-67
2021/06/21 08:50:17;;;;;;;3.67;1.00;;;24.60;61.70;;;;;;5000054;28;20321;-67
2021/06/21 08:52:43;;;;;;;4.65;1.00;;;24.70;61.90;;;;;;4997230;28;20038;-67
2021/06/21 08:55:11;;;;;;;4.60;1.17;;;24.80;61.20;;;;;;4997460;28;20084;-67
2021/06/21 08:57:40;;;;;;;6.90;1.23;;;24.90;61.50;;;;;;5003317;28;20066;-67
2021/06/21 09:00:08;;;;;;;4.90;1.00;;;25.00;61.40;;;;;;4998069;28;20034;-66
2021/06/21 09:02:35;;;;;;;5.38;1.20;;;25.00;61.20;;;;;;4996678;28;20049;-67
2021/06/21 09:05:02;;;;;;;5.38;1.30;;;25.10;60.90;;;;;;4998901;28;20058;-67
2021/06/21 09:07:28;;;;;;;10.77;1.33;;;25.20;60.20;;;;;;4994767;28;20382;-67
2021/06/21 09:09:57;;;;;;;2.13;0.77;;;25.20;59.50;;;;;;5004645;28;20033;-67
2021/06/21 09:12:27;;;;;;;4.85;1.13;;;25.30;58.80;;;;;;4996735;28;21285;-68
2021/06/21 09:14:55;;;;;;;6.78;1.25;;;25.40;59.20;;;;;;4995171;28;20031;-66
2021/06/21 09:17:23;;;;;;;7.38;1.25;;;25.40;59.00;;;;;;4997226;28;20037;-66
2021/06/21 09:19:58;;;;;;;2.88;0.80;;;25.50;58.90;;;;;;5005390;28;20038;-67
2021/06/21 09:22:27;;;;;;;;;;;25.60;57.70;;;;;;4997451;28;20036;-66
2021/06/21 09:24:53;;;;;;;3.00;0.75;;;25.60;58.00;;;;;;4998316;28;20292;-66
2021/06/21 09:27:21;;;;;;;3.95;0.80;;;25.70;59.10;;;;;;4998211;28;20109;-68
2021/06/21 09:29:48;;;;;;;3.90;0.80;;;25.80;58.70;;;;;;4997527;28;20033;-67
2021/06/21 09:32:15;;;;;;;5.32;1.10;;;25.90;58.50;;;;;;4995539;28;20452;-67
2021/06/21 09:34:43;;;;;;;4.28;0.98;;;26.00;57.80;;;;;;4997455;28;20037;-67
2021/06/21 09:37:17;;;;;;;2.63;1.00;;;26.00;57.30;;;;;;4996512;28;20031;-67
2021/06/21 09:39:45;;;;;;;5.45;0.80;;;26.10;55.90;;;;;;4998689;28;20101;-67
2021/06/21 09:42:12;;;;;;;2.33;0.70;;;26.10;56.80;;;;;;4998440;28;20054;-67
2021/06/21 09:45:00;;;;;;;2.97;1.00;;;26.10;56.00;;;;;;4996023;28;20556;-67
2021/06/21 09:47:28;;;;;;;1.67;0.63;;;26.10;55.70;;;;;;5002490;28;20050;-67
2021/06/21 09:50:19;;;;;;;5.10;1.00;;;26.10;56.00;;;;;;4996741;28;20030;-67
2021/06/21 09:52:47;;;;;;;2.78;0.70;;;26.10;55.50;;;;;;4998916;28;20375;-67
2021/06/21 09:55:13;;;;;;;3.63;0.88;;;26.20;56.30;;;;;;4997033;28;20033;-68
2021/06/21 09:57:39;;;;;;;4.20;0.82;;;26.30;56.30;;;;;;4996335;28;20035;-68
2021/06/21 10:00:11;;;;;;;9.05;0.93;;;26.30;55.90;;;;;;4999924;28;20042;-69
2021/06/21 10:02:37;;;;;;;2.05;0.57;;;26.40;55.70;;;;;;4997069;28;20529;-67
2021/06/21 10:05:05;;;;;;;2.88;0.55;;;26.50;55.40;;;;;;4995132;28;20038;-68
2021/06/21 10:07:33;;;;;;;2.83;0.88;;;26.50;54.70;;;;;;4999713;28;20034;-67
2021/06/21 10:10:06;;;;;;;1.73;0.73;;;26.60;55.50;;;;;;5005447;28;20026;-68
2021/06/21 10:12:34;;;;;;;3.70;1.00;;;26.70;55.10;;;;;;4999854;28;20390;-68
2021/06/21 10:15:00;;;;;;;2.65;1.00;;;26.80;54.70;;;;;;5000926;28;20506;-68
2021/06/21 10:17:26;;;;;;;3.30;0.73;;;26.90;52.90;;;;;;5001695;28;20069;-68
2021/06/21 10:19:55;;;;;;;3.28;0.68;;;26.90;52.40;;;;;;5000975;28;20076;-68
2021/06/21 10:22:23;;;;;;;6.93;1.00;;;27.00;52.30;;;;;;4999174;28;20121;-68
2021/06/21 10:24:55;;;;;;;3.95;0.80;;;27.00;51.90;;;;;;5001900;28;20035;-68
2021/06/21 10:27:21;;;;;;;1.33;0.70;;;27.00;51.10;;;;;;4999589;28;20104;-68
2021/06/21 10:29:47;;;;;;;4.13;0.90;;;27.00;51.50;;;;;;5001660;28;20505;-68
2021/06/21 10:32:14;;;;;;;4.50;1.05;;;27.00;52.50;;;;;;5002611;28;20668;-68
2021/06/21 10:34:40;;;;;;;2.63;0.75;;;27.00;52.00;;;;;;4998772;28;20646;-67
2021/06/21 10:37:22;;;;;;;1.75;0.63;;;27.10;51.90;;;;;;5001198;28;20112;-68
2021/06/21 10:39:53;;;;;;;3.55;0.80;;;27.10;51.00;;;;;;5000768;28;20121;-68
2021/06/21 10:42:26;;;;;;;2.90;0.90;;;27.20;51.20;;;;;;4999755;28;20694;-68
2021/06/21 10:44:58;;;;;;;2.80;0.57;;;27.30;52.00;;;;;;5001639;28;20536;-69
2021/06/21 10:47:24;;;;;;;4.80;1.00;;;27.40;50.70;;;;;;5001187;28;20105;-68
2021/06/21 10:50:16;;;;;;;1.55;0.80;;;27.40;51.60;;;;;;5000185;28;20030;-68
2021/06/21 10:52:51;;;;;;;3.40;0.70;;;27.40;50.40;;;;;;4997072;28;20318;-68
2021/06/21 10:57:54;;;;;;;6.60;0.75;;;27.50;50.20;;;;;;5000765;28;20037;-68
2021/06/21 11:00:22;;;;;;;2.00;0.73;;;27.50;51.00;;;;;;4999934;28;20029;-69
2021/06/21 11:02:48;;;;;;;3.97;0.80;;;27.50;51.40;;;;;;5011633;28;20084;-68
2021/06/21 11:05:31;;;;;;;5.35;0.85;;;27.50;50.80;;;;;;4999021;28;20428;-68
2021/06/21 11:08:18;;;;;;;2.45;0.70;;;27.50;48.50;;;;;;5000026;28;20357;-68
2021/06/21 11:10:46;;;;;;;5.70;0.90;;;27.60;50.80;;;;;;4998257;28;20524;-69
2021/06/21 11:13:36;;;;;;;4.05;1.05;;;27.70;50.60;;;;;;5000422;28;20046;-69
2021/06/21 11:16:20;;;;;;;2.38;0.50;;;27.70;50.00;;;;;;4998613;28;20382;-68
2021/06/21 11:18:47;;;;;;;4.10;0.90;;;27.80;49.20;;;;;;4999831;28;20049;-68
2021/06/21 11:21:15;;;;;;;3.85;0.82;;;28.00;49.50;;;;;;5000638;28;20518;-68
2021/06/21 11:23:43;;;;;;;3.13;0.82;;;28.00;49.80;;;;;;4999141;28;20029;-68
2021/06/21 11:26:09;;;;;;;4.95;1.05;;;28.00;49.30;;;;;;4997946;28;20040;-68
2021/06/21 11:28:36;;;;;;;3.42;0.93;;;28.00;48.70;;;;;;4998955;28;20042;-68
2021/06/21 11:31:26;;;;;;;5.32;1.02;;;28.00;49.40;;;;;;4999806;28;20041;-68
2021/06/21 11:33:54;;;;;;;2.85;0.95;;;28.00;48.40;;;;;;4999318;28;20058;-68
2021/06/21 11:36:46;;;;;;;3.35;0.75;;;28.00;49.30;;;;;;4997629;28;20906;-68
2021/06/21 11:39:29;;;;;;;3.05;0.90;;;28.00;48.30;;;;;;5000394;28;20103;-68
2021/06/21 11:42:03;;;;;;;2.10;0.73;;;28.00;47.80;;;;;;5001097;28;20038;-68
2021/06/21 11:44:40;;;;;;;2.25;0.85;;;28.00;49.00;;;;;;4999391;28;20041;-68
2021/06/21 11:47:21;;;;;;;6.05;1.00;;;28.00;47.40;;;;;;5000275;28;20057;-68
2021/06/21 11:49:49;;;;;;;2.50;0.75;;;28.00;47.90;;;;;;4999648;28;20116;-68
2021/06/21 11:52:23;;;;;;;4.03;0.95;;;28.00;48.10;;;;;;4997389;28;20038;-69
2021/06/21 11:54:53;;;;;;;2.30;0.70;;;27.90;47.90;;;;;;5005984;28;20031;-69
2021/06/21 11:57:22;;;;;;;2.15;0.70;;;27.90;47.70;;;;;;4997709;28;20045;-69
2021/06/21 11:59:50;;;;;;;6.45;1.20;;;27.90;48.20;;;;;;4999074;28;20035;-68
2021/06/21 12:02:18;;;;;;;3.72;0.90;;;27.90;47.20;;;;;;4998081;28;20042;-69
2021/06/21 12:04:45;;;;;;;3.05;0.85;;;27.80;47.00;;;;;;4999891;28;20080;-68
2021/06/21 12:07:31;;;;;;;2.13;0.80;;;27.80;47.30;;;;;;4997491;28;20568;-69
2021/06/21 12:09:58;;;;;;;2.13;0.60;;;27.80;46.10;;;;;;4998247;28;20041;-68
2021/06/21 12:12:24;;;;;;;3.33;0.77;;;27.80;47.00;;;;;;4995117;28;20034;-68
2021/06/21 12:14:50;;;;;;;2.90;0.88;;;27.80;47.20;;;;;;5000237;28;20030;-69
2021/06/21 12:17:23;;;;;;;2.42;0.85;;;27.80;47.40;;;;;;4999058;28;20045;-69
2021/06/21 12:20:14;;;;;;;2.20;0.70;;;27.90;46.60;;;;;;5014508;28;20485;-68
2021/06/21 12:22:41;;;;;;;5.25;0.75;;;28.00;46.60;;;;;;4996311;28;20125;-67
2021/06/21 12:25:27;;;;;;;2.70;0.65;;;28.00;46.70;;;;;;4999229;28;20033;-67
2021/06/21 12:27:53;;;;;;;3.97;0.70;;;28.10;46.70;;;;;;4999073;28;20037;-66
2021/06/21 12:30:43;;;;;;;5.90;1.00;;;28.10;46.90;;;;;;4999672;28;20521;-66
2021/06/21 12:33:34;;;;;;;2.67;0.98;;;28.20;47.10;;;;;;4996776;28;20041;-66
2021/06/21 12:36:01;;;;;;;4.45;0.70;;;28.30;44.70;;;;;;5011047;28;20038;-66
2021/06/21 12:38:28;;;;;;;1.88;0.68;;;28.30;45.50;;;;;;4993380;28;20027;-67
2021/06/21 12:40:54;;;;;;;4.78;1.00;;;28.30;45.60;;;;;;4998402;28;20062;-67
2021/06/21 12:43:20;;;;;;;2.67;0.88;;;28.30;45.90;;;;;;4999959;28;20524;-67
2021/06/21 12:45:45;;;;;;;2.13;0.80;;;28.30;46.30;;;;;;4998962;28;20033;-67
2021/06/21 12:48:11;;;;;;;2.40;0.93;;;28.30;45.70;;;;;;5005632;28;20030;-67
2021/06/21 12:50:36;;;;;;;3.30;0.93;;;28.30;46.20;;;;;;4999331;28;20093;-67
2021/06/21 12:53:07;;;;;;;2.65;0.80;;;28.30;45.70;;;;;;4998188;28;20129;-67
2021/06/21 12:55:33;;;;;;;3.38;0.80;;;28.30;46.00;;;;;;4999023;28;20121;-67
2021/06/21 12:58:06;;;;;;;2.70;0.90;;;28.30;45.50;;;;;;4996710;28;20113;-67
2021/06/21 13:00:46;;;;;;;3.60;0.68;;;28.30;45.30;;;;;;4998706;28;20054;-67